Time;durP1;ratioP1;P1;durP2;ratioP2;P2;SDS_P1;SDS_P2;PMS_P1;PMS_P2;Temp;Humidity;BMP_temperature;BMP_pressure;BME280_temperature;BME280_humidity;BME280_pressure;Samples;Min_cycle;Max_cycle;Signal;HPM_P1;HPM_P2
2022/02/25 00:03:01;;;;;;;;;1.50;1.50;;;;;;;;2;261073664;261073664;-81
2022/02/25 00:12:01;;;;;;;;;0.50;0.50;;;;;;;;2;261072204;261072204;-81
2022/02/25 00:20:17;;;;;;;;;2.00;2.00;;;;;;;;2;261074710;261074710;-81
2022/02/25 00:29:17;;;;;;;;;4.00;0.00;;;;;;;;2;261076032;261076032;-82
2022/02/25 00:37:32;;;;;;;;;0.00;0.00;;;;;;;;2;261075329;261075329;-81
2022/02/25 00:46:33;;;;;;;;;0.50;0.50;;;;;;;;2;261080200;261080200;-81
2022/02/25 00:54:48;;;;;;;;;1.00;1.00;;;;;;;;2;261072424;261072424;-81
2022/02/25 01:03:49;;;;;;;;;0.50;0.50;;;;;;;;2;261075551;261075551;-81
2022/02/25 01:12:06;;;;;;;;;0.00;0.00;;;;;;;;2;261075724;261075724;-81
2022/02/25 01:21:09;;;;;;;;;1.50;1.50;;;;;;;;2;261074783;261074783;-81
2022/02/25 01:29:24;;;;;;;;;1.00;1.00;;;;;;;;2;261074383;261074383;-81
2022/02/25 01:38:25;;;;;;;;;11.00;0.00;;;;;;;;2;261074730;261074730;-81
2022/02/25 01:46:40;;;;;;;;;1.50;1.50;;;;;;;;2;261074930;261074930;-81
2022/02/25 01:55:42;;;;;;;;;1.50;1.50;;;;;;;;2;261076641;261076641;-81
2022/02/25 02:03:58;;;;;;;;;0.00;0.00;;;;;;;;2;261074695;261074695;-81
2022/02/25 02:12:58;;;;;;;;;4.50;0.50;;;;;;;;2;261076616;261076616;-81
2022/02/25 02:21:14;;;;;;;;;0.00;0.00;;;;;;;;2;261078910;261078910;-81
2022/02/25 02:30:16;;;;;;;;;0.00;0.00;;;;;;;;2;261073638;261073638;-81
2022/02/25 02:38:31;;;;;;;;;8.50;1.00;;;;;;;;2;261078874;261078874;-81
2022/02/25 02:47:32;;;;;;;;;1.50;1.50;;;;;;;;2;261075589;261075589;-81
2022/02/25 02:55:47;;;;;;;;;1.50;1.50;;;;;;;;2;261074017;261074017;-81
2022/02/25 03:04:48;;;;;;;;;0.50;0.50;;;;;;;;2;261074815;261074815;-81
2022/02/25 03:13:04;;;;;;;;;0.00;0.00;;;;;;;;2;261075402;261075402;-81
2022/02/25 03:22:05;;;;;;;;;0.50;0.50;;;;;;;;2;261079023;261079023;-81
2022/02/25 03:30:20;;;;;;;;;0.50;0.50;;;;;;;;2;261077101;261077101;-81
2022/02/25 03:39:21;;;;;;;;;0.50;0.50;;;;;;;;2;261076629;261076629;-80
2022/02/25 03:47:36;;;;;;;;;1.50;1.50;;;;;;;;2;261077438;261077438;-81
2022/02/25 03:56:37;;;;;;;;;0.50;0.50;;;;;;;;2;261074880;261074880;-81
2022/02/25 04:04:52;;;;;;;;;11.00;0.00;;;;;;;;2;261076124;261076124;-81
2022/02/25 04:13:54;;;;;;;;;1.00;1.00;;;;;;;;2;261076129;261076129;-81
2022/02/25 04:22:09;;;;;;;;;0.00;0.00;;;;;;;;2;261077658;261077658;-81
2022/02/25 04:31:09;;;;;;;;;0.00;0.00;;;;;;;;2;261077005;261077005;-81
2022/02/25 04:39:25;;;;;;;;;0.00;0.00;;;;;;;;2;261074996;261074996;-81
2022/02/25 04:48:26;;;;;;;;;0.00;0.00;;;;;;;;2;261074504;261074504;-81
2022/02/25 04:56:41;;;;;;;;;12.00;0.00;;;;;;;;2;261075264;261075264;-81
2022/02/25 05:05:42;;;;;;;;;0.00;0.00;;;;;;;;2;261074962;261074962;-81
2022/02/25 05:13:57;;;;;;;;;0.00;0.00;;;;;;;;2;261076960;261076960;-81
2022/02/25 05:22:59;;;;;;;;;4.50;0.50;;;;;;;;2;261074457;261074457;-82
2022/02/25 05:31:15;;;;;;;;;0.00;0.00;;;;;;;;2;261072934;261072934;-82
2022/02/25 05:40:16;;;;;;;;;0.50;0.50;;;;;;;;2;261076849;261076849;-82
2022/02/25 05:48:32;;;;;;;;;0.00;0.00;;;;;;;;2;261073844;261073844;-82
2022/02/25 05:57:32;;;;;;;;;0.00;0.00;;;;;;;;2;261075756;261075756;-81
2022/02/25 06:05:48;;;;;;;;;0.50;0.50;;;;;;;;2;261077060;261077060;-81
2022/02/25 06:14:48;;;;;;;;;0.50;0.50;;;;;;;;2;261074734;261074734;-81
2022/02/25 06:23:04;;;;;;;;;0.50;0.50;;;;;;;;2;261076136;261076136;-81
2022/02/25 06:32:04;;;;;;;;;1.50;1.50;;;;;;;;2;261075142;261075142;-81
2022/02/25 06:40:20;;;;;;;;;0.00;0.00;;;;;;;;2;261074746;261074746;-81
2022/02/25 06:49:20;;;;;;;;;0.00;0.00;;;;;;;;2;261077897;261077897;-82
2022/02/25 06:57:35;;;;;;;;;11.50;0.00;;;;;;;;2;261074639;261074639;-82
2022/02/25 07:06:38;;;;;;;;;14.00;2.50;;;;;;;;2;261073157;261073157;-81
2022/02/25 07:14:53;;;;;;;;;0.50;0.50;;;;;;;;2;261075598;261075598;-81
2022/02/25 07:23:54;;;;;;;;;0.50;0.50;;;;;;;;2;261076810;261076810;-82
2022/02/25 07:32:09;;;;;;;;;0.50;0.50;;;;;;;;2;261076835;261076835;-81
2022/02/25 07:41:10;;;;;;;;;5.00;1.00;;;;;;;;2;261076790;261076790;-83
2022/02/25 07:49:25;;;;;;;;;0.00;0.00;;;;;;;;2;261078891;261078891;-81
2022/02/25 07:58:26;;;;;;;;;0.50;0.50;;;;;;;;2;261074843;261074843;-82
2022/02/25 08:06:45;;;;;;;;;5.50;1.50;;;;;;;;2;261079472;261079472;-82
2022/02/25 08:15:45;;;;;;;;;1.50;1.50;;;;;;;;2;261076204;261076204;-82
2022/02/25 08:24:01;;;;;;;;;0.00;0.00;;;;;;;;2;261074014;261074014;-82
2022/02/25 08:33:02;;;;;;;;;2.00;2.00;;;;;;;;2;261075248;261075248;-82
2022/02/25 08:41:17;;;;;;;;;1.00;1.00;;;;;;;;2;261076477;261076477;-82
2022/02/25 08:50:18;;;;;;;;;14.50;1.50;;;;;;;;2;261078105;261078105;-80
2022/02/25 08:58:34;;;;;;;;;1.00;1.00;;;;;;;;2;261074670;261074670;-80
2022/02/25 09:07:35;;;;;;;;;2.00;2.00;;;;;;;;2;261074585;261074585;-80
2022/02/25 09:15:50;;;;;;;;;2.00;2.00;;;;;;;;2;261078281;261078281;-80
2022/02/25 09:24:51;;;;;;;;;4.00;4.00;;;;;;;;2;261077186;261077186;-80
2022/02/25 09:33:07;;;;;;;;;2.00;2.00;;;;;;;;2;261074683;261074683;-81
2022/02/25 09:42:09;;;;;;;;;2.50;2.50;;;;;;;;2;261074901;261074901;-80
2022/02/25 09:50:26;;;;;;;;;2.00;2.00;;;;;;;;2;261077311;261077311;-80
2022/02/25 09:59:27;;;;;;;;;2.50;2.50;;;;;;;;2;261075616;261075616;-80
2022/02/25 10:07:43;;;;;;;;;2.50;2.50;;;;;;;;2;261072243;261072243;-81
2022/02/25 10:17:00;;;;;;;;;2.00;2.00;;;;;;;;2;261076820;261076820;-81
2022/02/25 10:25:19;;;;;;;;;1.50;1.50;;;;;;;;2;261073640;261073640;-81
2022/02/25 10:34:19;;;;;;;;;4.50;4.50;;;;;;;;2;261075438;261075438;-81
2022/02/25 10:42:36;;;;;;;;;16.00;0.00;;;;;;;;2;261074432;261074432;-80
2022/02/25 10:51:37;;;;;;;;;0.50;0.50;;;;;;;;2;261075126;261075126;-81
2022/02/25 10:59:52;;;;;;;;;4.50;1.00;;;;;;;;2;261073219;261073219;-80
2022/02/25 11:08:53;;;;;;;;;0.50;0.50;;;;;;;;2;261077623;261077623;-80
2022/02/25 11:17:09;;;;;;;;;6.00;6.00;;;;;;;;2;261075513;261075513;-81
2022/02/25 11:26:11;;;;;;;;;11.50;3.00;;;;;;;;2;261076856;261076856;-82
2022/02/25 11:34:27;;;;;;;;;1.00;1.00;;;;;;;;2;261074409;261074409;-81
2022/02/25 11:43:32;;;;;;;;;2.50;2.50;;;;;;;;2;261074944;261074944;-82
2022/02/25 11:51:53;;;;;;;;;1.50;1.50;;;;;;;;2;261075768;261075768;-82
2022/02/25 12:01:03;;;;;;;;;3.00;3.00;;;;;;;;2;261077452;261077452;-82
2022/02/25 12:09:37;;;;;;;;;8.00;4.00;;;;;;;;2;261074764;261074764;-82
2022/02/25 12:18:39;;;;;;;;;5.00;5.00;;;;;;;;2;261075488;261075488;-82
2022/02/25 12:26:58;;;;;;;;;4.00;4.00;;;;;;;;2;261075429;261075429;-82
2022/02/25 12:36:21;;;;;;;;;14.50;1.50;;;;;;;;2;261075401;261075401;-82
2022/02/25 12:44:40;;;;;;;;;3.00;3.00;;;;;;;;2;261077112;261077112;-82
2022/02/25 12:53:48;;;;;;;;;5.00;5.00;;;;;;;;2;261078020;261078020;-82
2022/02/25 13:02:05;;;;;;;;;5.50;5.50;;;;;;;;2;261076402;261076402;-82
2022/02/25 13:11:06;;;;;;;;;7.50;7.50;;;;;;;;2;261076286;261076286;-81
2022/02/25 13:19:22;;;;;;;;;5.00;5.00;;;;;;;;2;261073739;261073739;-82
2022/02/25 13:28:22;;;;;;;;;2.50;2.50;;;;;;;;2;261075712;261075712;-82
2022/02/25 13:36:38;;;;;;;;;1.50;1.50;;;;;;;;2;261078597;261078597;-82
2022/02/25 13:45:38;;;;;;;;;1.50;1.50;;;;;;;;2;261076302;261076302;-88
2022/02/25 13:53:56;;;;;;;;;6.50;2.50;;;;;;;;2;261076058;261076058;-86
2022/02/25 14:02:57;;;;;;;;;2.50;2.50;;;;;;;;2;261074825;261074825;-84
2022/02/25 14:11:12;;;;;;;;;0.50;0.50;;;;;;;;2;261071465;261071465;-86
2022/02/25 14:20:20;;;;;;;;;1.00;1.00;;;;;;;;2;261076699;261076699;-87
2022/02/25 14:28:36;;;;;;;;;2.00;2.00;;;;;;;;2;261073687;261073687;-87
2022/02/25 14:37:36;;;;;;;;;12.00;0.50;;;;;;;;2;261075377;261075377;-81
2022/02/25 14:45:52;;;;;;;;;3.50;3.50;;;;;;;;2;261074096;261074096;-85
2022/02/25 14:54:52;;;;;;;;;1.50;1.50;;;;;;;;2;261073091;261073091;-86
2022/02/25 15:03:08;;;;;;;;;6.50;1.00;;;;;;;;2;261074853;261074853;-86
2022/02/25 15:12:09;;;;;;;;;2.00;2.00;;;;;;;;2;261074709;261074709;-86
2022/02/25 15:20:25;;;;;;;;;13.50;1.50;;;;;;;;2;261076636;261076636;-85
2022/02/25 15:29:25;;;;;;;;;3.00;3.00;;;;;;;;2;261075253;261075253;-86
2022/02/25 15:37:41;;;;;;;;;1.00;1.00;;;;;;;;2;261077482;261077482;-86
2022/02/25 15:46:41;;;;;;;;;13.50;1.50;;;;;;;;2;261075349;261075349;-86
2022/02/25 15:54:57;;;;;;;;;0.50;0.50;;;;;;;;2;261076653;261076653;-86
2022/02/25 16:03:57;;;;;;;;;3.00;3.00;;;;;;;;2;261077399;261077399;-86
2022/02/25 16:12:13;;;;;;;;;12.00;1.00;;;;;;;;2;261072746;261072746;-86
2022/02/25 16:21:14;;;;;;;;;1.50;1.50;;;;;;;;2;261075074;261075074;-86
2022/02/25 16:29:30;;;;;;;;;7.50;4.00;;;;;;;;2;261078153;261078153;-85
2022/02/25 16:38:30;;;;;;;;;3.00;0.00;;;;;;;;2;261078117;261078117;-86
2022/02/25 16:46:46;;;;;;;;;6.00;1.00;;;;;;;;2;261071372;261071372;-85
2022/02/25 16:55:46;;;;;;;;;2.50;2.50;;;;;;;;2;261076044;261076044;-85
2022/02/25 17:04:02;;;;;;;;;6.00;3.50;;;;;;;;2;261075108;261075108;-85
2022/02/25 17:13:02;;;;;;;;;3.00;3.00;;;;;;;;2;261076481;261076481;-86
2022/02/25 17:21:18;;;;;;;;;11.50;3.00;;;;;;;;2;261074537;261074537;-86
2022/02/25 17:30:18;;;;;;;;;2.50;2.50;;;;;;;;2;261076177;261076177;-85
2022/02/25 17:38:34;;;;;;;;;3.00;3.00;;;;;;;;2;261076459;261076459;-86
2022/02/25 17:47:38;;;;;;;;;7.50;5.00;;;;;;;;2;261075191;261075191;-85
2022/02/25 17:55:53;;;;;;;;;3.00;3.00;;;;;;;;2;261074547;261074547;-85
2022/02/25 18:04:54;;;;;;;;;4.00;4.00;;;;;;;;2;261076033;261076033;-85
2022/02/25 18:13:09;;;;;;;;;7.00;3.00;;;;;;;;2;261073892;261073892;-86
2022/02/25 18:22:10;;;;;;;;;6.00;6.00;;;;;;;;2;261079010;261079010;-85
2022/02/25 18:30:25;;;;;;;;;1.00;1.00;;;;;;;;2;261075065;261075065;-87
2022/02/25 18:39:26;;;;;;;;;4.50;4.50;;;;;;;;2;261076520;261076520;-86
2022/02/25 18:47:41;;;;;;;;;2.00;2.00;;;;;;;;2;261075166;261075166;-84
2022/02/25 18:56:42;;;;;;;;;5.50;5.50;;;;;;;;2;261076113;261076113;-86
2022/02/25 19:04:58;;;;;;;;;8.00;8.00;;;;;;;;2;261074361;261074361;-86
2022/02/25 19:13:58;;;;;;;;;3.00;3.00;;;;;;;;2;261074694;261074694;-86
2022/02/25 19:22:15;;;;;;;;;8.50;4.50;;;;;;;;2;261075865;261075865;-86
2022/02/25 19:31:16;;;;;;;;;18.50;2.50;;;;;;;;2;261072851;261072851;-85
2022/02/25 19:39:33;;;;;;;;;3.50;3.50;;;;;;;;2;261077155;261077155;-86
2022/02/25 19:48:34;;;;;;;;;3.00;3.00;;;;;;;;2;261074798;261074798;-84
2022/02/25 19:56:49;;;;;;;;;11.00;8.50;;;;;;;;2;261072158;261072158;-84
2022/02/25 20:05:49;;;;;;;;;5.00;2.00;;;;;;;;2;261073368;261073368;-83
2022/02/25 20:14:05;;;;;;;;;3.00;3.00;;;;;;;;2;261074684;261074684;-85
2022/02/25 20:23:05;;;;;;;;;8.50;5.50;;;;;;;;2;261073986;261073986;-85
2022/02/25 20:31:22;;;;;;;;;16.00;5.00;;;;;;;;2;261076748;261076748;-85
2022/02/25 20:40:22;;;;;;;;;8.50;4.50;;;;;;;;2;261074944;261074944;-84
2022/02/25 20:48:38;;;;;;;;;9.50;9.50;;;;;;;;2;261074981;261074981;-84
2022/02/25 20:57:39;;;;;;;;;7.00;7.00;;;;;;;;2;261073313;261073313;-84
2022/02/25 21:05:54;;;;;;;;;9.50;9.50;;;;;;;;2;261075845;261075845;-84
2022/02/25 21:14:55;;;;;;;;;4.50;4.50;;;;;;;;2;261077795;261077795;-86
2022/02/25 21:23:10;;;;;;;;;6.00;6.00;;;;;;;;2;261073567;261073567;-85
2022/02/25 21:32:11;;;;;;;;;8.50;5.50;;;;;;;;2;261076683;261076683;-85
2022/02/25 21:40:28;;;;;;;;;4.50;4.50;;;;;;;;2;261075467;261075467;-84
2022/02/25 21:49:28;;;;;;;;;7.50;7.50;;;;;;;;2;261073866;261073866;-85
2022/02/25 21:57:44;;;;;;;;;4.50;4.50;;;;;;;;2;261074183;261074183;-85
2022/02/25 22:06:45;;;;;;;;;7.00;7.00;;;;;;;;2;261074000;261074000;-85
2022/02/25 22:15:00;;;;;;;;;5.50;5.50;;;;;;;;2;261075520;261075520;-85
2022/02/25 22:24:00;;;;;;;;;12.50;7.50;;;;;;;;2;261076424;261076424;-84
2022/02/25 22:32:16;;;;;;;;;7.50;6.00;;;;;;;;2;261073452;261073452;-84
2022/02/25 22:41:16;;;;;;;;;5.00;5.00;;;;;;;;2;261074913;261074913;-84
2022/02/25 22:49:31;;;;;;;;;9.50;9.50;;;;;;;;2;261076098;261076098;-84
2022/02/25 23:07:06;;;;;;;;;13.50;4.50;;;;;;;;2;261077364;261077364;-84
2022/02/25 23:16:06;;;;;;;;;9.00;9.00;;;;;;;;2;261074430;261074430;-84
2022/02/25 23:33:44;;;;;;;;;15.50;12.00;;;;;;;;175622;28;261076401;-84
2022/02/25 23:42:44;;;;;;;;;3.50;3.50;;;;;;;;2;261076726;261076726;-84
2022/02/25 23:51:00;;;;;;;;;6.00;6.00;;;;;;;;2;261079074;261079074;-84
